createdAt,value
2019-05-14T00:00:21.766Z,32.09
2019-05-14T00:03:02.309Z,31.41
2019-05-14T00:05:39.191Z,31.28
2019-05-14T00:08:17.457Z,32.07
2019-05-14T00:10:49.312Z,32.30
2019-05-14T00:13:21.427Z,31.62
2019-05-14T00:15:54.417Z,32.02
2019-05-14T00:18:26.953Z,32.11
2019-05-14T00:20:57.559Z,32.10
2019-05-14T00:23:31.693Z,32.55
2019-05-14T00:26:03.215Z,32.79
2019-05-14T00:28:35.181Z,32.47
2019-05-14T00:31:09.254Z,32.34
2019-05-14T00:33:44.342Z,32.74
2019-05-14T00:36:16.302Z,32.43
2019-05-14T00:38:47.678Z,32.64
2019-05-14T00:41:22.588Z,32.71
2019-05-14T00:43:54.090Z,33.13
2019-05-14T00:46:25.114Z,32.93
2019-05-14T00:48:55.746Z,33.19
2019-05-14T00:51:26.324Z,33.18
2019-05-14T00:54:01.664Z,33.65
2019-05-14T00:56:33.985Z,33.32
2019-05-14T00:59:07.457Z,33.00
2019-05-14T01:01:45.802Z,33.77
2019-05-14T01:04:18.530Z,33.16
2019-05-14T01:06:51.505Z,32.93
2019-05-14T01:09:23.127Z,33.50
2019-05-14T01:11:53.642Z,34.04
2019-05-14T01:14:26.211Z,33.73
2019-05-14T01:16:57.844Z,33.35
2019-05-14T01:19:28.434Z,33.39
2019-05-14T01:22:01.829Z,33.31
2019-05-14T01:24:34.702Z,33.90
2019-05-14T01:27:08.016Z,33.79
2019-05-14T01:29:42.669Z,33.87
2019-05-14T01:32:13.165Z,33.49
2019-05-14T01:34:48.164Z,33.73
2019-05-14T01:37:22.794Z,34.04
2019-05-14T01:39:55.404Z,34.01
2019-05-14T01:42:28.141Z,34.32
2019-05-14T01:45:02.556Z,33.98
2019-05-14T01:47:34.052Z,34.55
2019-05-14T01:50:04.444Z,34.61
2019-05-14T01:52:35.407Z,35.01
2019-05-14T01:55:08.664Z,34.60
2019-05-14T01:57:42.290Z,34.73
2019-05-14T02:00:17.947Z,35.11
2019-05-14T02:02:52.423Z,34.62
2019-05-14T02:05:25.997Z,34.47
2019-05-14T02:08:01.770Z,34.87
2019-05-14T02:10:34.779Z,34.74
2019-05-14T02:13:08.662Z,34.85
2019-05-14T02:15:42.959Z,35.28
2019-05-14T02:18:17.166Z,35.16
2019-05-14T02:20:47.454Z,35.05
2019-05-14T02:23:18.841Z,34.99
2019-05-14T02:25:55.524Z,34.99
2019-05-14T02:28:26.438Z,35.03
2019-05-14T02:31:03.534Z,35.79
2019-05-14T02:33:32.866Z,35.32
2019-05-14T02:36:04.441Z,35.55
2019-05-14T02:38:38.742Z,35.65
2019-05-14T02:41:09.897Z,35.57
2019-05-14T02:43:41.937Z,35.43
2019-05-14T02:46:18.674Z,35.38
2019-05-14T02:48:51.912Z,35.99
2019-05-14T02:51:22.972Z,36.10
2019-05-14T02:54:04.396Z,36.26
2019-05-14T02:56:40.240Z,36.36
2019-05-14T02:59:11.070Z,36.14
2019-05-14T03:01:44.087Z,35.97
2019-05-14T03:04:15.947Z,36.40
2019-05-14T03:06:49.633Z,36.63
2019-05-14T03:09:24.022Z,36.92
2019-05-14T03:11:54.896Z,36.97
2019-05-14T03:14:25.931Z,36.96
2019-05-14T03:17:01.411Z,37.13
2019-05-14T03:19:32.069Z,37.33
2019-05-14T03:22:02.560Z,36.99
2019-05-14T03:24:35.920Z,37.10
2019-05-14T03:27:09.349Z,37.80
2019-05-14T03:29:41.888Z,38.04
2019-05-14T03:32:22.146Z,37.79
2019-05-14T03:34:53.836Z,37.58
2019-05-14T03:37:30.893Z,37.98
2019-05-14T03:40:01.274Z,37.98
2019-05-14T03:42:36.024Z,38.21
2019-05-14T03:45:08.580Z,38.20
2019-05-14T03:47:43.928Z,38.35
2019-05-14T03:50:14.584Z,38.36
2019-05-14T03:52:50.211Z,38.69
2019-05-14T03:55:21.396Z,38.09
2019-05-14T03:57:52.385Z,38.23
2019-05-14T04:00:49.982Z,38.45
2019-05-14T04:03:23.586Z,38.44
2019-05-14T04:06:04.353Z,38.69
2019-05-14T04:08:49.754Z,38.78
2019-05-14T04:11:24.734Z,38.66
2019-05-14T04:14:00.181Z,38.80
2019-05-14T04:16:39.631Z,38.95
2019-05-14T04:19:14.180Z,38.93
2019-05-14T04:21:49.872Z,38.74
2019-05-14T04:24:29.681Z,39.01
2019-05-14T04:27:12.812Z,39.26
2019-05-14T04:29:45.184Z,39.32
2019-05-14T04:32:19.991Z,39.31
2019-05-14T04:34:53.522Z,39.37
2019-05-14T04:37:24.477Z,39.29
2019-05-14T04:39:59.368Z,39.39
2019-05-14T04:42:32.874Z,39.40
2019-05-14T04:45:05.751Z,39.90
2019-05-14T04:47:42.193Z,39.24
2019-05-14T04:50:20.073Z,40.13
2019-05-14T04:52:59.908Z,39.76
2019-05-14T04:55:35.309Z,40.19
2019-05-14T04:58:10.202Z,40.28
2019-05-14T05:00:44.790Z,39.79
2019-05-14T05:03:15.503Z,40.46
2019-05-14T05:05:49.946Z,39.83
2019-05-14T05:08:21.825Z,40.02
2019-05-14T05:10:55.279Z,40.90
2019-05-14T05:13:41.093Z,40.90
2019-05-14T05:16:15.104Z,40.61
2019-05-14T05:18:49.102Z,40.46
2019-05-14T05:21:24.823Z,40.99
2019-05-14T05:23:55.753Z,40.65
2019-05-14T05:26:28.720Z,40.71
2019-05-14T05:29:06.518Z,40.86
2019-05-14T05:31:35.118Z,40.92
2019-05-14T05:34:09.708Z,40.62
2019-05-14T05:36:43.392Z,40.85
2019-05-14T05:39:22.986Z,41.56
2019-05-14T05:41:58.344Z,41.67
2019-05-14T05:44:31.162Z,40.77
2019-05-14T05:47:04.950Z,41.99
2019-05-14T05:49:38.406Z,41.38
2019-05-14T05:52:14.578Z,41.83
2019-05-14T05:54:45.574Z,41.55
2019-05-14T05:57:20.094Z,41.81
2019-05-14T05:59:51.141Z,41.98
2019-05-14T06:02:23.250Z,42.02
2019-05-14T06:04:55.566Z,42.64
2019-05-14T06:07:28.835Z,42.35
2019-05-14T06:10:09.698Z,42.28
2019-05-14T06:12:49.105Z,42.05
2019-05-14T06:15:24.363Z,41.84
2019-05-14T06:18:10.406Z,41.82
2019-05-14T06:20:28.223Z,42.20
2019-05-14T06:23:00.500Z,42.48
2019-05-14T06:25:31.539Z,42.71
2019-05-14T06:28:02.321Z,42.35
2019-05-14T06:30:43.000Z,42.64
2019-05-14T06:33:19.633Z,42.59
2019-05-14T06:36:01.010Z,41.68
2019-05-14T06:38:38.834Z,41.65
2019-05-14T06:41:11.674Z,42.33
2019-05-14T06:43:48.683Z,41.52
2019-05-14T06:46:20.509Z,42.03
2019-05-14T06:48:50.746Z,41.84
2019-05-14T06:51:21.197Z,41.96
2019-05-14T06:53:58.917Z,41.89
2019-05-14T06:56:32.037Z,41.56
2019-05-14T06:59:09.043Z,41.33
2019-05-14T07:01:44.480Z,41.13
2019-05-14T07:04:18.250Z,41.50
2019-05-14T07:06:52.775Z,41.97
2019-05-14T07:09:24.399Z,41.42
2019-05-14T07:11:58.471Z,41.95
2019-05-14T07:14:32.415Z,41.26
2019-05-14T07:17:04.971Z,41.66
2019-05-14T07:19:38.575Z,42.04
2019-05-14T07:22:12.173Z,41.14
2019-05-14T07:24:45.733Z,41.91
2019-05-14T07:27:22.415Z,40.77
2019-05-14T07:29:53.807Z,40.17
2019-05-14T07:32:29.741Z,39.61
2019-05-14T07:35:04.751Z,40.87
2019-05-14T07:37:39.616Z,41.17
2019-05-14T07:40:13.933Z,40.00
2019-05-14T07:42:44.551Z,41.08
2019-05-14T07:45:19.401Z,40.62
2019-05-14T07:47:54.455Z,39.97
2019-05-14T07:50:25.603Z,39.13
2019-05-14T07:52:58.561Z,38.91
2019-05-14T07:55:41.530Z,39.17
2019-05-14T08:01:11.162Z,38.41
2019-05-14T08:03:42.386Z,38.33
2019-05-14T08:06:14.241Z,39.43
2019-05-14T08:08:49.221Z,39.20
2019-05-14T08:11:28.520Z,38.83
2019-05-14T08:14:03.555Z,38.30
2019-05-14T08:16:38.141Z,38.38
2019-05-14T08:19:24.341Z,37.82
2019-05-14T08:21:47.982Z,37.78
2019-05-14T08:24:20.209Z,36.68
2019-05-14T08:26:54.418Z,36.39
2019-05-14T08:29:28.539Z,36.40
2019-05-14T08:32:01.553Z,35.90
2019-05-14T08:34:35.739Z,36.08
2019-05-14T08:37:10.282Z,35.73
2019-05-14T08:39:43.578Z,37.87
2019-05-14T08:42:18.579Z,36.06
2019-05-14T08:44:51.714Z,36.06
2019-05-14T08:47:22.238Z,35.79
2019-05-14T08:49:53.998Z,34.34
2019-05-14T08:52:28.580Z,35.24
2019-05-14T08:55:09.106Z,34.45
2019-05-14T08:57:31.855Z,33.23
2019-05-14T09:03:03.265Z,32.91
2019-05-14T09:05:34.621Z,31.94
2019-05-14T09:08:04.903Z,31.10
2019-05-14T09:10:35.099Z,30.68
2019-05-14T09:13:10.677Z,30.43
2019-05-14T09:15:54.908Z,31.72
2019-05-14T09:18:34.007Z,32.14
2019-05-14T09:21:49.567Z,30.73
2019-05-14T09:24:25.867Z,29.89
2019-05-14T09:26:59.302Z,30.29
2019-05-14T09:29:30.230Z,30.01
2019-05-14T09:32:00.395Z,29.34
2019-05-14T09:34:33.269Z,28.28
2019-05-14T09:37:04.834Z,28.38
2019-05-14T09:39:38.712Z,27.76
2019-05-14T09:45:48.166Z,27.37
2019-05-14T09:48:42.091Z,27.25
2019-05-14T09:51:13.909Z,26.85
2019-05-14T09:53:45.357Z,27.15
2019-05-14T09:56:18.641Z,26.61
2019-05-14T09:58:51.840Z,27.21
2019-05-14T10:01:27.264Z,26.79
2019-05-14T10:03:59.525Z,27.25
2019-05-14T10:06:30.157Z,26.83
2019-05-14T10:09:01.940Z,27.70
2019-05-14T10:12:28.624Z,26.50
2019-05-14T10:15:02.397Z,25.55
2019-05-14T10:17:34.576Z,25.42
2019-05-14T10:20:08.581Z,25.27
2019-05-14T10:22:40.154Z,24.15
2019-05-14T10:25:10.825Z,24.52
2019-05-14T10:27:41.077Z,25.42
2019-05-14T10:30:12.848Z,24.08
2019-05-14T10:32:44.106Z,23.79
2019-05-14T10:35:19.151Z,22.88
2019-05-14T10:37:53.946Z,23.11
2019-05-14T10:40:23.626Z,23.82
2019-05-14T10:42:57.949Z,24.22
2019-05-14T10:45:32.412Z,23.24
2019-05-14T10:48:03.627Z,22.28
2019-05-14T10:50:52.253Z,22.31
2019-05-14T10:53:10.447Z,21.92
2019-05-14T10:55:42.508Z,21.57
2019-05-14T10:58:19.195Z,21.94
2019-05-14T11:00:49.527Z,19.92
2019-05-14T11:03:24.931Z,21.35
2019-05-14T11:05:58.768Z,22.07
2019-05-14T11:08:29.808Z,19.77
2019-05-14T11:11:03.623Z,20.83
2019-05-14T11:13:34.256Z,20.97
2019-05-14T11:16:05.194Z,21.15
2019-05-14T11:18:39.602Z,20.25
2019-05-14T11:21:19.813Z,20.50
2019-05-14T11:23:42.569Z,20.52
2019-05-14T11:26:13.157Z,20.57
2019-05-14T11:28:43.714Z,20.48
2019-05-14T11:31:13.869Z,21.13
2019-05-14T11:33:44.055Z,21.35
2019-05-14T11:36:15.668Z,20.15
2019-05-14T11:38:46.232Z,21.63
2019-05-14T11:41:18.609Z,20.94
2019-05-14T11:43:54.145Z,21.32
2019-05-14T11:46:39.915Z,20.84
2019-05-14T11:48:59.399Z,21.55
2019-05-14T11:51:58.983Z,19.50
2019-05-14T11:54:03.273Z,19.54
2019-05-14T11:56:33.840Z,20.83
2019-05-14T11:59:05.518Z,21.90
2019-05-14T12:01:39.257Z,21.30
2019-05-14T12:04:09.595Z,20.64
2019-05-14T12:06:41.025Z,21.29
2019-05-14T12:09:12.158Z,20.70
2019-05-14T12:11:42.477Z,21.87
2019-05-14T12:14:13.233Z,22.04
2019-05-14T12:16:43.403Z,20.24
2019-05-14T12:19:14.113Z,19.79
2019-05-14T12:21:58.929Z,20.21
2019-05-14T12:24:18.433Z,20.41
2019-05-14T12:26:49.682Z,20.17
2019-05-14T12:29:21.740Z,18.74
2019-05-14T12:31:51.919Z,19.01
2019-05-14T12:34:22.298Z,18.71
2019-05-14T12:36:52.461Z,18.22
2019-05-14T12:39:25.335Z,18.37
2019-05-14T12:41:58.063Z,16.64
2019-05-14T12:44:29.324Z,18.83
2019-05-14T12:46:59.559Z,17.88
2019-05-14T12:49:30.346Z,17.69
2019-05-14T12:52:17.861Z,17.69
2019-05-14T12:54:35.006Z,17.93
2019-05-14T12:57:07.109Z,18.03
2019-05-14T12:59:39.857Z,18.25
2019-05-14T13:02:10.897Z,18.42
2019-05-14T13:04:42.757Z,17.80
2019-05-14T13:07:13.989Z,18.39
2019-05-14T13:09:46.157Z,17.12
2019-05-14T13:12:18.773Z,17.63
2019-05-14T13:14:51.057Z,17.91
2019-05-14T13:17:21.248Z,17.74
2019-05-14T13:19:51.895Z,16.11
2019-05-14T13:22:38.206Z,16.98
2019-05-14T13:24:59.774Z,17.33
2019-05-14T13:27:31.212Z,18.25
2019-05-14T13:30:04.390Z,17.29
2019-05-14T13:32:34.758Z,16.99
2019-05-14T13:35:09.549Z,16.83
2019-05-14T13:37:39.842Z,16.67
2019-05-14T13:40:13.902Z,17.57
2019-05-14T13:42:48.968Z,17.13
2019-05-14T13:45:23.681Z,17.43
2019-05-14T13:47:53.828Z,17.87
2019-05-14T13:50:24.865Z,17.71
2019-05-14T13:53:02.688Z,16.12
2019-05-14T13:55:30.414Z,16.98
2019-05-14T13:58:00.016Z,17.42
2019-05-14T14:00:31.580Z,17.01
2019-05-14T14:03:02.014Z,17.89
2019-05-14T14:05:32.276Z,16.90
2019-05-14T14:08:02.781Z,17.40
2019-05-14T14:10:39.564Z,15.64
2019-05-14T14:13:11.361Z,15.26
2019-05-14T14:15:40.394Z,14.42
2019-05-14T14:18:11.145Z,14.40
2019-05-14T14:20:42.299Z,14.07
2019-05-14T14:23:21.840Z,14.49
2019-05-14T14:25:54.523Z,12.47
2019-05-14T14:28:20.708Z,11.35
2019-05-14T14:30:53.364Z,11.64
2019-05-14T14:33:23.937Z,9.83
2019-05-14T14:35:55.114Z,9.67
2019-05-14T14:38:29.174Z,10.92
2019-05-14T14:40:59.451Z,10.61
2019-05-14T14:43:29.766Z,10.52
2019-05-14T14:46:01.114Z,10.67
2019-05-14T14:48:32.510Z,9.66
2019-05-14T14:51:03.493Z,10.17
2019-05-14T14:53:51.288Z,10.64
2019-05-14T14:56:09.913Z,10.51
2019-05-14T14:58:40.776Z,9.60
2019-05-14T15:01:11.962Z,9.12
2019-05-14T15:03:44.188Z,8.51
2019-05-14T15:06:17.547Z,8.47
2019-05-14T15:08:49.654Z,8.37
2019-05-14T15:11:21.180Z,8.18
2019-05-14T15:13:51.781Z,7.62
2019-05-14T15:16:22.762Z,7.42
2019-05-14T15:18:52.990Z,7.53
2019-05-14T15:21:25.539Z,8.04
2019-05-14T15:24:07.022Z,8.56
2019-05-14T15:26:29.085Z,9.03
2019-05-14T15:29:02.260Z,10.77
2019-05-14T15:31:33.040Z,11.67
2019-05-14T15:34:03.254Z,12.54
2019-05-14T15:36:33.915Z,13.19
2019-05-14T15:39:06.240Z,13.48
2019-05-14T15:41:39.976Z,14.73
2019-05-14T15:44:10.250Z,15.61
2019-05-14T15:46:42.058Z,16.26
2019-05-14T15:49:12.840Z,16.72
2019-05-14T15:51:43.461Z,16.98
2019-05-14T15:54:35.241Z,17.62
2019-05-14T15:56:45.584Z,18.17
2019-05-14T15:59:15.784Z,18.82
2019-05-14T16:01:46.420Z,18.74
2019-05-14T16:04:16.584Z,19.19
2019-05-14T16:06:48.909Z,19.12
2019-05-14T16:09:19.432Z,19.97
2019-05-14T16:11:52.657Z,19.97
2019-05-14T16:14:23.273Z,20.35
2019-05-14T16:16:54.105Z,19.76
2019-05-14T16:19:25.379Z,20.03
2019-05-14T16:21:55.654Z,20.18
2019-05-14T16:24:28.566Z,20.67
2019-05-14T16:27:00.799Z,20.39
2019-05-14T16:29:44.275Z,20.31
2019-05-14T16:32:04.865Z,20.82
2019-05-14T16:34:40.730Z,20.58
2019-05-14T16:37:11.063Z,21.53
2019-05-14T16:39:41.086Z,20.17
2019-05-14T16:42:11.268Z,20.38
2019-05-14T16:44:41.848Z,21.21
2019-05-14T16:47:13.325Z,20.80
2019-05-14T16:49:43.489Z,20.81
2019-05-14T16:52:13.710Z,21.24
2019-05-14T16:54:44.383Z,21.11
2019-05-14T16:57:14.549Z,21.18
2019-05-14T16:59:49.591Z,21.63
2019-05-14T17:02:19.632Z,21.23
2019-05-14T17:04:50.705Z,21.19
2019-05-14T17:07:23.161Z,21.82
2019-05-14T17:09:55.075Z,21.47
2019-05-14T17:12:25.227Z,21.69
2019-05-14T17:14:58.622Z,22.02
2019-05-14T17:17:32.007Z,22.26
2019-05-14T17:20:02.934Z,20.95
2019-05-14T17:22:33.936Z,21.94
2019-05-14T17:25:04.825Z,22.02
2019-05-14T17:27:39.118Z,22.45
2019-05-14T17:30:10.163Z,22.22
2019-05-14T17:32:41.438Z,21.83
2019-05-14T17:35:12.325Z,22.33
2019-05-14T17:37:42.460Z,22.62
2019-05-14T17:40:14.147Z,22.89
2019-05-14T17:42:50.544Z,23.08
2019-05-14T17:45:22.310Z,22.50
2019-05-14T17:47:52.790Z,22.61
2019-05-14T17:50:23.015Z,23.10
2019-05-14T17:53:00.412Z,22.72
2019-05-14T17:55:43.571Z,22.89
2019-05-14T17:58:03.139Z,22.10
2019-05-14T18:00:34.278Z,22.77
2019-05-14T18:03:05.246Z,22.64
2019-05-14T18:05:37.812Z,23.31
2019-05-14T18:08:09.323Z,23.18
2019-05-14T18:10:41.282Z,23.17
2019-05-14T18:13:14.638Z,22.67
2019-05-14T18:15:44.847Z,23.26
2019-05-14T18:18:15.105Z,23.28
2019-05-14T18:20:45.264Z,23.23
2019-05-14T18:23:15.414Z,22.62
2019-05-14T18:26:01.051Z,23.84
2019-05-14T18:28:20.206Z,23.25
2019-05-14T18:30:50.518Z,23.64
2019-05-14T18:33:30.798Z,23.58
2019-05-14T18:35:59.218Z,23.58
2019-05-14T18:38:29.884Z,23.93
2019-05-14T18:41:01.457Z,24.17
2019-05-14T18:43:31.897Z,24.17
2019-05-14T18:46:04.454Z,24.38
2019-05-14T18:48:35.869Z,23.74
2019-05-14T18:51:08.687Z,23.35
2019-05-14T18:53:40.108Z,23.35
2019-05-14T18:56:20.360Z,23.89
2019-05-14T18:58:43.242Z,23.97
2019-05-14T19:01:13.555Z,25.21
2019-05-14T19:04:01.307Z,24.85
2019-05-14T19:06:31.522Z,23.83
2019-05-14T19:09:02.254Z,24.82
2019-05-14T19:11:34.209Z,25.10
2019-05-14T19:14:09.107Z,24.68
2019-05-14T19:16:40.439Z,25.32
2019-05-14T19:19:11.091Z,25.48
2019-05-14T19:21:41.369Z,25.73
2019-05-14T19:24:11.980Z,25.13
2019-05-14T19:26:43.697Z,25.15
2019-05-14T19:29:15.002Z,24.50
2019-05-14T19:31:45.271Z,26.49
2019-05-14T19:34:19.223Z,25.24
2019-05-14T19:36:49.634Z,25.35
2019-05-14T19:39:20.303Z,25.34
2019-05-14T19:41:51.467Z,25.72
2019-05-14T19:44:21.814Z,25.90
2019-05-14T19:46:51.825Z,25.97
2019-05-14T19:49:22.538Z,25.86
2019-05-14T19:51:53.776Z,25.71
2019-05-14T19:54:25.093Z,25.60
2019-05-14T19:57:01.106Z,25.72
2019-05-14T19:59:39.238Z,27.29
2019-05-14T20:02:10.330Z,26.32
2019-05-14T20:04:44.774Z,25.93
2019-05-14T20:07:15.115Z,26.27
2019-05-14T20:09:48.314Z,26.81
2019-05-14T20:12:21.892Z,26.62
2019-05-14T20:14:58.345Z,26.67
2019-05-14T20:17:30.131Z,26.34
2019-05-14T20:20:03.678Z,26.39
2019-05-14T20:22:59.205Z,26.74
2019-05-14T20:25:32.987Z,26.77
2019-05-14T20:28:03.139Z,25.94
2019-05-14T20:30:38.645Z,26.79
2019-05-14T20:33:11.773Z,27.08
2019-05-14T20:35:41.874Z,27.28
2019-05-14T20:38:14.519Z,27.19
2019-05-14T20:40:52.221Z,27.26
2019-05-14T20:43:38.452Z,27.61
2019-05-14T20:46:18.332Z,26.42
2019-05-14T20:48:47.957Z,27.57
2019-05-14T20:51:22.487Z,27.36
2019-05-14T20:53:55.251Z,27.32
2019-05-14T20:56:28.247Z,27.57
2019-05-14T20:58:59.548Z,27.54
2019-05-14T21:01:31.021Z,27.68
2019-05-14T21:04:01.804Z,27.43
2019-05-14T21:06:32.992Z,27.99
2019-05-14T21:09:04.473Z,27.63
2019-05-14T21:11:38.248Z,28.14
2019-05-14T21:14:09.901Z,27.64
2019-05-14T21:16:42.632Z,28.07
2019-05-14T21:19:28.362Z,27.10
2019-05-14T21:22:01.176Z,27.05
2019-05-14T21:24:31.485Z,27.94
2019-05-14T21:27:02.271Z,27.38
2019-05-14T21:29:33.403Z,29.08
2019-05-14T21:32:04.508Z,28.88
2019-05-14T21:34:34.868Z,29.12
2019-05-14T21:37:08.829Z,29.41
2019-05-14T21:39:41.060Z,29.63
2019-05-14T21:42:10.969Z,29.62
2019-05-14T21:44:41.354Z,29.68
2019-05-14T21:49:56.384Z,29.99
2019-05-14T21:52:31.811Z,29.96
2019-05-14T21:55:03.658Z,30.16
2019-05-14T21:57:38.259Z,30.00
2019-05-14T22:00:14.874Z,30.29
2019-05-14T22:02:49.123Z,29.96
2019-05-14T22:05:20.155Z,30.59
2019-05-14T22:07:51.402Z,31.32
2019-05-14T22:10:22.634Z,30.68
2019-05-14T22:12:54.330Z,30.62
2019-05-14T22:15:25.454Z,30.46
2019-05-14T22:17:58.534Z,31.10
2019-05-14T22:20:29.127Z,30.80
2019-05-14T22:22:59.536Z,31.22
2019-05-14T22:25:30.032Z,31.46
2019-05-14T22:28:11.438Z,31.59
2019-05-14T22:30:33.206Z,31.98
2019-05-14T22:33:04.519Z,31.64
2019-05-14T22:35:35.294Z,32.10
2019-05-14T22:38:08.043Z,32.11
2019-05-14T22:40:39.084Z,31.75
2019-05-14T22:43:11.590Z,31.30
2019-05-14T22:45:41.790Z,31.93
2019-05-14T22:48:12.408Z,32.08
2019-05-14T22:50:43.103Z,32.19
2019-05-14T22:53:15.987Z,32.23
2019-05-14T22:55:46.209Z,32.00
2019-05-14T22:58:25.565Z,32.19
2019-05-14T23:01:02.211Z,32.59
2019-05-14T23:03:24.265Z,32.60
2019-05-14T23:05:54.433Z,32.60
2019-05-14T23:08:25.756Z,32.45
2019-05-14T23:10:55.906Z,32.63
2019-05-14T23:13:28.238Z,32.67
2019-05-14T23:16:00.858Z,32.77
2019-05-14T23:18:33.764Z,32.77
2019-05-14T23:21:03.928Z,33.02
2019-05-14T23:23:34.696Z,32.86
2019-05-14T23:26:05.651Z,32.61
2019-05-14T23:28:44.586Z,33.49
2019-05-14T23:31:12.265Z,33.28
2019-05-14T23:33:43.934Z,33.48
2019-05-14T23:36:18.286Z,33.54
2019-05-14T23:38:50.645Z,33.45
2019-05-14T23:41:23.498Z,33.66
2019-05-14T23:43:54.293Z,33.50
2019-05-14T23:46:24.579Z,33.56
2019-05-14T23:48:56.474Z,33.76
2019-05-14T23:51:28.994Z,33.83
2019-05-14T23:53:58.962Z,33.82
2019-05-14T23:56:29.718Z,34.06
2019-05-14T23:59:02.067Z,33.84
